Terminal Aerodrome Forecast
Issued by NWS Green Bay, WI

Home | Current Version | Previous Version | Text Only | Print | Product List | Glossary On
Versions: 1 2 3 4 5 6 7 8 9 10 11 12 13 14 15 16 17 18 19 20 21 22 23 24 25 26 27 28 29 30 31 32 33 34
000
FTUS43 KGRB 231700 RRA
TAFGRB
TAF
KGRB 231741Z 2318/2418 06009KT P6SM BKN200
     FM232100 11008KT P6SM SCT100 BKN250
     FM240500 11005KT P6SM SCT040 BKN080
      TEMPO 2409/2413 5SM -SHRA OVC040
     FM241300 13012G21KT 4SM -SHRA BR OVC035=

USA.gov is the U.S. government's official web portal to all federal, state and local government web resources and services.